Kalmar, Sweden

12:08 PM CEST on July 29, 2014 (GMT +0200)
ILNKALMA2 Elev 23 ft | 56.69 °N, 16.33 °E | Change Station

Current weather conditions updated 8 seconds ago

Partly Cloudy
Partly Cloudy
86.7 °F
Feels Like 89 °F
N
0.0
Wind Variable Wind from West
Gusts 0.0 mph

Today is forecast to be nearly the same temperature as yesterday.

Today
High -- | Low -- °F
--% Chance of Precip.
Yesterday
High -- | Low -- °F
Precip. -- in
4:49 AM 9:12 PM
Waxing Crescent, 5% visible
Pressure 29.86 in
Visibility 6.2 miles
Clouds Few 3000 ft
Heat Index 89 °F
Dew Point 66 °F
Humidity 50%
Rainfall 0.00 in
Snow Depth Not available.
UV 8 out of 12
Pollen Not available.
Air Quality Not available.
Flu Activity Not available.
METAR ESMQ 290950Z 16006KT 9999 FEW030TCU 26/17 Q1011

More Conditions Fewer Conditions

Pressure 29.86 in
Visibility 6.2 miles
Clouds Few 3000 ft
Heat Index 89 °F
Dew Point 66 °F
Humidity 50%
Rainfall 0.00 in
Snow Depth Not available.
UV 8 out of 12
Pollen Not available.
Air Quality Not available.
Flu Activity Not available.
METAR ESMQ 290950Z 16006KT 9999 FEW030TCU 26/17 Q1011

More Conditions Fewer Conditions

10-Day Weather Forecast

Almanac

Astronomy

Jul. 29, 2014 Rise Set
Actual Time 4:49 AM CEST 9:12 PM CEST
Civil Twilight 3:57 AM CEST 10:03 PM CEST
Nautical Twilight 2:34 AM CEST 11:24 PM CEST
Astronomical Twilight Sun does not rise Sun does not rise
Moon 7:49 AM CEST 9:30 PM CEST
Length of Visible Light 18h 05m
Length of Day
16h 23m
Tomorrow will be 3m 54s shorter.
Waxing Crescent, 5% of the Moon is Illuminated
Today
Waxing Crescent
Aug 3
First Quarter
Aug 10
Full
Aug 17
Last Quarter
Aug 25
New

Yesterday's Extremes

Country Highs Country Lows

Community

WunderPhotos

Upload Photos

1,738,675 photos uploaded!

Nearby

Snow Depth

Not available.

Earthquake Activity

City Distance Mag. Time & Date
No recent earthquake activity has been reported nearby.
Minimum magnitude displayed is 2.5.

Coastal Water Temperatures

Place Temperature
No Stations Reporting

Nearby Weather Stations

Station Location Temp. Heat Index Dew Point Humidity Wind Precip. Elev Updated Type
Kalmar, Djurangen 86.7 °F 89 °F 66 °F 50% West  at  0.0 mph 0.00 in / hr 23 ft 12:08 PM CEST Rapid Fire
Vaderkoll, Oxhagen, Kalmar 80.7 °F 82 °F 64 °F 58% SSW  at  0.0 mph 0.00 in / hr 20 ft 12:08 PM CEST Rapid Fire
Oland, Farjestaden 78.0 °F 80 °F 69 °F 73% South  at  0.3 mph 0.00 in / hr 10 ft 12:08 PM CEST Rapid Fire
Pataholm, Patamalm 77.7 °F 80 °F 65 °F 65% NE  at  3.0 mph 0.00 in / hr 16 ft 12:07 PM CEST Rapid Fire
Oland, Borgholm 79.2 °F 80 °F 61 °F 53% North  at  0.0 mph 0.00 in / hr 16 ft 12:07 PM CEST Normal

Show More Stations Show Fewer Stations